createdAt,value
2019-02-17T00:01:07.715Z,5.93
2019-02-17T00:02:12.157Z,5.93
2019-02-17T00:03:16.426Z,5.93
2019-02-17T00:04:20.685Z,5.90
2019-02-17T00:05:24.687Z,5.88
2019-02-17T00:06:28.618Z,5.87
2019-02-17T00:07:32.546Z,5.84
2019-02-17T00:08:36.486Z,5.66
2019-02-17T00:09:40.416Z,5.78
2019-02-17T00:10:44.684Z,5.78
2019-02-17T00:11:48.855Z,5.58
2019-02-17T00:12:52.784Z,5.74
2019-02-17T00:13:56.838Z,5.74
2019-02-17T00:15:01.100Z,5.75
2019-02-17T00:16:05.101Z,5.71
2019-02-17T00:17:08.951Z,5.71
2019-02-17T00:18:12.806Z,5.70
2019-02-17T00:19:16.750Z,5.71
2019-02-17T00:20:20.754Z,5.70
2019-02-17T00:21:24.956Z,5.68
2019-02-17T00:22:29.160Z,5.68
2019-02-17T00:23:33.051Z,5.68
2019-02-17T00:24:37.270Z,5.66
2019-02-17T00:25:41.477Z,5.65
2019-02-17T00:26:45.732Z,5.64
2019-02-17T00:27:49.662Z,5.64
2019-02-17T00:28:59.539Z,5.64
2019-02-17T00:29:59.541Z,5.63
2019-02-17T00:31:03.832Z,5.63
2019-02-17T00:32:07.766Z,5.64
2019-02-17T00:33:11.784Z,5.67
2019-02-17T00:34:15.803Z,5.63
2019-02-17T00:35:19.973Z,5.59
2019-02-17T00:36:23.979Z,5.60
2019-02-17T00:37:27.906Z,5.59
2019-02-17T00:38:32.225Z,5.59
2019-02-17T00:39:36.351Z,5.58
2019-02-17T00:40:40.369Z,5.57
2019-02-17T00:41:44.368Z,5.57
2019-02-17T00:42:48.370Z,5.59
2019-02-17T00:43:52.218Z,5.58
2019-02-17T00:44:56.092Z,5.59
2019-02-17T00:46:00.314Z,5.57
2019-02-17T00:47:04.867Z,5.54
2019-02-17T00:48:08.789Z,5.54
2019-02-17T00:49:12.747Z,5.54
2019-02-17T00:50:16.749Z,5.51
2019-02-17T00:51:20.682Z,5.51
2019-02-17T00:52:24.943Z,5.51
2019-02-17T00:53:29.038Z,5.49
2019-02-17T00:54:33.053Z,5.49
2019-02-17T00:55:37.509Z,5.46
2019-02-17T00:56:41.513Z,5.47
2019-02-17T00:57:45.690Z,5.43
2019-02-17T00:58:49.618Z,5.43
2019-02-17T00:59:53.896Z,5.44
2019-02-17T01:00:58.073Z,5.43
2019-02-17T01:02:02.317Z,5.41
2019-02-17T01:03:06.318Z,5.38
2019-02-17T01:04:10.570Z,5.40
2019-02-17T01:05:14.836Z,5.36
2019-02-17T01:06:19.005Z,5.35
2019-02-17T01:07:23.258Z,5.34
2019-02-17T01:08:27.759Z,5.33
2019-02-17T01:09:31.771Z,5.34
2019-02-17T01:10:35.967Z,5.32
2019-02-17T01:11:40.174Z,5.34
2019-02-17T01:12:44.040Z,5.31
2019-02-17T01:13:48.051Z,5.29
2019-02-17T01:14:52.364Z,5.28
2019-02-17T01:15:56.405Z,5.27
2019-02-17T01:17:00.419Z,5.27
2019-02-17T01:18:04.689Z,5.25
2019-02-17T01:19:09.572Z,5.26
2019-02-17T01:20:13.814Z,5.24
2019-02-17T01:21:17.751Z,5.24
2019-02-17T01:22:21.895Z,5.22
2019-02-17T01:23:26.232Z,5.22
2019-02-17T01:24:30.425Z,5.21
2019-02-17T01:25:34.690Z,5.21
2019-02-17T01:26:38.949Z,5.20
2019-02-17T01:27:43.203Z,5.19
2019-02-17T01:28:47.787Z,5.18
2019-02-17T01:29:52.080Z,5.17
2019-02-17T01:30:56.099Z,5.14
2019-02-17T01:32:00.385Z,5.13
2019-02-17T01:33:04.729Z,5.11
2019-02-17T01:34:10.865Z,5.09
2019-02-17T01:35:14.872Z,5.08
2019-02-17T01:36:18.898Z,5.06
2019-02-17T01:37:23.186Z,5.02
2019-02-17T01:38:27.206Z,5.01
2019-02-17T01:39:31.208Z,5.00
2019-02-17T01:40:35.226Z,4.99
2019-02-17T01:41:39.234Z,4.97
2019-02-17T01:42:43.252Z,4.96
2019-02-17T01:43:47.470Z,4.95
2019-02-17T01:44:51.485Z,4.95
2019-02-17T01:45:55.517Z,4.95
2019-02-17T01:46:59.451Z,4.94
2019-02-17T01:48:04.138Z,4.94
2019-02-17T01:49:08.408Z,4.94
2019-02-17T01:50:12.769Z,4.95
2019-02-17T01:51:17.008Z,4.94
2019-02-17T01:52:21.214Z,4.92
2019-02-17T01:53:25.236Z,4.90
2019-02-17T01:54:29.166Z,4.89
2019-02-17T01:55:33.182Z,4.87
2019-02-17T01:56:37.136Z,4.86
2019-02-17T01:57:41.533Z,4.85
2019-02-17T01:58:46.073Z,4.85
2019-02-17T01:59:50.017Z,4.84
2019-02-17T02:00:53.951Z,4.83
2019-02-17T02:01:57.900Z,4.82
2019-02-17T02:03:01.836Z,4.82
2019-02-17T02:04:05.929Z,4.82
2019-02-17T02:05:10.041Z,4.81
2019-02-17T02:06:14.173Z,4.82
2019-02-17T02:07:18.454Z,4.81
2019-02-17T02:08:22.762Z,4.83
2019-02-17T02:09:27.070Z,4.81
2019-02-17T02:10:31.438Z,4.82
2019-02-17T02:11:35.386Z,4.80
2019-02-17T02:12:39.794Z,4.80
2019-02-17T02:13:44.097Z,4.78
2019-02-17T02:14:48.507Z,4.76
2019-02-17T02:15:52.451Z,4.76
2019-02-17T02:16:56.474Z,4.74
2019-02-17T02:18:00.415Z,4.74
2019-02-17T02:19:04.528Z,4.72
2019-02-17T02:20:09.997Z,4.69
2019-02-17T02:21:13.938Z,4.68
2019-02-17T02:22:17.810Z,4.65
2019-02-17T02:23:22.094Z,4.64
2019-02-17T02:24:26.035Z,4.63
2019-02-17T02:25:30.362Z,4.62
2019-02-17T02:26:34.671Z,4.62
2019-02-17T02:27:38.947Z,4.60
2019-02-17T02:28:43.374Z,4.59
2019-02-17T02:29:47.310Z,4.59
2019-02-17T02:30:51.557Z,4.60
2019-02-17T02:31:55.927Z,4.57
2019-02-17T02:32:59.801Z,4.57
2019-02-17T02:34:03.801Z,4.56
2019-02-17T02:35:08.142Z,4.54
2019-02-17T02:36:12.145Z,4.52
2019-02-17T02:37:16.422Z,4.51
2019-02-17T02:38:20.670Z,4.50
2019-02-17T02:39:24.603Z,4.51
2019-02-17T02:40:28.830Z,4.48
2019-02-17T02:41:34.959Z,4.46
2019-02-17T02:42:38.503Z,4.46
2019-02-17T02:43:42.694Z,4.46
2019-02-17T02:44:48.614Z,4.43
2019-02-17T02:45:52.943Z,4.42
2019-02-17T02:46:57.206Z,4.42
2019-02-17T02:48:01.564Z,4.43
2019-02-17T02:49:06.207Z,4.45
2019-02-17T02:50:10.984Z,4.53
2019-02-17T02:51:15.048Z,4.50
2019-02-17T02:52:19.290Z,4.40
2019-02-17T02:53:23.289Z,4.38
2019-02-17T02:54:27.480Z,4.35
2019-02-17T02:55:31.807Z,4.29
2019-02-17T02:56:36.160Z,4.27
2019-02-17T02:57:40.523Z,4.19
2019-02-17T02:58:44.650Z,4.11
2019-02-17T02:59:52.439Z,4.12
2019-02-17T03:00:54.915Z,4.11
2019-02-17T03:01:59.453Z,4.09
2019-02-17T03:03:03.427Z,4.04
2019-02-17T03:04:07.430Z,4.10
2019-02-17T03:05:11.704Z,4.11
2019-02-17T03:06:33.627Z,4.12
2019-02-17T03:07:38.139Z,4.08
2019-02-17T03:08:42.007Z,4.01
2019-02-17T03:09:46.347Z,3.98
2019-02-17T03:10:50.361Z,3.99
2019-02-17T03:11:54.552Z,3.94
2019-02-17T03:12:58.883Z,3.94
2019-02-17T03:14:02.895Z,3.92
2019-02-17T03:15:07.107Z,3.91
2019-02-17T03:16:11.044Z,3.90
2019-02-17T03:17:14.989Z,3.91
2019-02-17T03:18:19.190Z,3.95
2019-02-17T03:19:23.807Z,3.94
2019-02-17T03:20:28.155Z,3.88
2019-02-17T03:21:32.094Z,3.88
2019-02-17T03:22:36.402Z,3.88
2019-02-17T03:23:40.786Z,3.87
2019-02-17T03:24:45.128Z,3.82
2019-02-17T03:25:49.683Z,3.82
2019-02-17T03:26:53.689Z,3.79
2019-02-17T03:27:57.554Z,3.79
2019-02-17T03:29:02.072Z,3.77
2019-02-17T03:30:07.297Z,3.80
2019-02-17T03:31:11.237Z,3.76
2019-02-17T03:32:15.505Z,3.75
2019-02-17T03:33:19.487Z,3.70
2019-02-17T03:34:23.506Z,3.71
2019-02-17T03:35:27.359Z,3.73
2019-02-17T03:36:31.350Z,3.74
2019-02-17T03:37:35.208Z,3.72
2019-02-17T03:38:39.328Z,3.67
2019-02-17T03:39:43.497Z,3.64
2019-02-17T03:40:47.497Z,3.59
2019-02-17T03:41:51.351Z,3.58
2019-02-17T03:42:55.518Z,3.53
2019-02-17T03:43:59.394Z,3.53
2019-02-17T03:45:03.400Z,3.55
2019-02-17T03:46:07.540Z,3.50
2019-02-17T03:47:11.544Z,3.53
2019-02-17T03:48:15.484Z,3.50
2019-02-17T03:49:19.770Z,3.55
2019-02-17T03:50:23.694Z,3.54
2019-02-17T03:51:27.869Z,3.53
2019-02-17T03:52:32.061Z,3.53
2019-02-17T03:53:36.028Z,3.55
2019-02-17T03:54:40.531Z,3.54
2019-02-17T03:55:44.778Z,3.53
2019-02-17T03:56:48.784Z,3.47
2019-02-17T03:57:52.858Z,3.48
2019-02-17T03:58:56.798Z,3.45
2019-02-17T04:00:00.721Z,3.47
2019-02-17T04:01:04.963Z,3.48
2019-02-17T04:02:09.251Z,3.51
2019-02-17T04:03:13.318Z,3.48
2019-02-17T04:04:17.559Z,3.47
2019-02-17T04:05:22.098Z,3.42
2019-02-17T04:06:26.270Z,3.40
2019-02-17T04:07:30.484Z,3.42
2019-02-17T04:08:34.397Z,3.38
2019-02-17T04:09:38.998Z,3.43
2019-02-17T04:10:43.022Z,3.43
2019-02-17T04:11:47.074Z,3.44
2019-02-17T04:12:51.410Z,3.40
2019-02-17T04:13:55.864Z,3.37
2019-02-17T04:15:00.594Z,3.41
2019-02-17T04:16:04.947Z,3.45
2019-02-17T04:17:09.563Z,3.44
2019-02-17T04:18:13.826Z,3.49
2019-02-17T04:19:18.180Z,3.44
2019-02-17T04:20:22.811Z,3.44
2019-02-17T04:21:27.101Z,3.47
2019-02-17T04:22:31.781Z,3.39
2019-02-17T04:23:35.642Z,3.43
2019-02-17T04:24:40.054Z,3.37
2019-02-17T04:25:44.065Z,3.42
2019-02-17T04:26:48.347Z,3.47
2019-02-17T04:27:52.346Z,3.42
2019-02-17T04:28:56.550Z,3.43
2019-02-17T04:30:00.957Z,3.42
2019-02-17T04:31:04.948Z,3.44
2019-02-17T04:32:09.023Z,3.41
2019-02-17T04:33:12.977Z,3.36
2019-02-17T04:34:17.370Z,3.29
2019-02-17T04:35:21.319Z,3.29
2019-02-17T04:36:25.257Z,3.34
2019-02-17T04:37:29.574Z,3.31
2019-02-17T04:38:33.509Z,3.31
2019-02-17T04:39:37.523Z,3.30
2019-02-17T04:40:41.800Z,3.27
2019-02-17T04:41:46.092Z,3.32
2019-02-17T04:42:50.295Z,3.33
2019-02-17T04:43:54.315Z,3.36
2019-02-17T04:44:58.200Z,3.34
2019-02-17T04:46:02.504Z,3.28
2019-02-17T04:47:06.813Z,3.26
2019-02-17T04:48:10.753Z,3.27
2019-02-17T04:49:15.046Z,3.21
2019-02-17T04:50:19.066Z,3.26
2019-02-17T04:51:22.933Z,3.28
2019-02-17T04:52:26.866Z,3.24
2019-02-17T04:53:31.653Z,3.24
2019-02-17T04:54:35.587Z,3.20
2019-02-17T04:55:39.611Z,3.10
2019-02-17T04:56:43.906Z,3.12
2019-02-17T04:57:47.852Z,3.12
2019-02-17T04:58:51.788Z,3.10
2019-02-17T04:59:56.009Z,3.13
2019-02-17T05:01:00.234Z,3.09
2019-02-17T05:02:04.143Z,3.08
2019-02-17T05:03:08.479Z,3.00
2019-02-17T05:04:12.778Z,3.05
2019-02-17T05:05:16.798Z,3.00
2019-02-17T05:06:21.086Z,3.00
2019-02-17T05:07:25.098Z,3.03
2019-02-17T05:08:29.026Z,2.99
2019-02-17T05:09:33.299Z,2.99
2019-02-17T05:10:37.401Z,2.96
2019-02-17T05:11:41.383Z,2.90
2019-02-17T05:12:45.400Z,2.91
2019-02-17T05:13:49.425Z,2.94
2019-02-17T05:14:53.712Z,2.96
2019-02-17T05:15:57.754Z,2.97
2019-02-17T05:17:01.628Z,3.01
2019-02-17T05:18:05.657Z,3.07
2019-02-17T05:19:09.706Z,3.00
2019-02-17T05:20:13.732Z,3.03
2019-02-17T05:21:17.755Z,3.10
2019-02-17T05:22:22.121Z,3.08
2019-02-17T05:23:26.063Z,3.07
2019-02-17T05:24:30.266Z,3.14
2019-02-17T05:25:34.852Z,3.18
2019-02-17T05:26:39.144Z,3.13
2019-02-17T05:27:43.356Z,3.08
2019-02-17T05:28:47.372Z,3.03
2019-02-17T05:29:51.392Z,3.04
2019-02-17T05:30:55.433Z,3.03
2019-02-17T05:31:59.610Z,3.03
2019-02-17T05:33:04.486Z,3.04
2019-02-17T05:34:08.434Z,3.04
2019-02-17T05:35:12.753Z,3.05
2019-02-17T05:36:16.783Z,3.05
2019-02-17T05:37:21.412Z,3.06
2019-02-17T05:38:25.349Z,3.06
2019-02-17T05:39:29.925Z,3.08
2019-02-17T05:40:36.417Z,3.14
2019-02-17T05:41:40.393Z,3.12
2019-02-17T05:42:44.795Z,3.09
2019-02-17T05:43:48.826Z,3.07
2019-02-17T05:44:52.756Z,3.11
2019-02-17T05:45:57.163Z,3.11
2019-02-17T05:47:01.040Z,3.10
2019-02-17T05:48:05.105Z,3.08
2019-02-17T05:49:09.414Z,3.10
2019-02-17T05:50:13.660Z,3.11
2019-02-17T05:51:17.671Z,3.12
2019-02-17T05:52:21.871Z,3.11
2019-02-17T05:53:26.046Z,3.16
2019-02-17T05:54:30.410Z,3.17
2019-02-17T05:55:34.918Z,3.15
2019-02-17T05:56:38.872Z,3.12
2019-02-17T05:57:42.802Z,3.04
2019-02-17T05:58:47.315Z,3.02
2019-02-17T05:59:51.418Z,2.97
2019-02-17T06:01:03.207Z,2.92
2019-02-17T06:02:01.217Z,2.90
2019-02-17T06:03:05.473Z,2.93
2019-02-17T06:04:09.672Z,2.93
2019-02-17T06:05:13.672Z,2.92
2019-02-17T06:06:17.982Z,2.88
2019-02-17T06:07:21.944Z,2.91
2019-02-17T06:08:25.873Z,2.94
2019-02-17T06:09:30.119Z,2.97
2019-02-17T06:10:34.369Z,2.95
2019-02-17T06:11:38.236Z,2.93
2019-02-17T06:12:42.439Z,2.93
2019-02-17T06:13:46.449Z,2.92
2019-02-17T06:14:51.064Z,2.97
2019-02-17T06:15:54.982Z,2.94
2019-02-17T06:16:59.015Z,2.91
2019-02-17T06:18:03.374Z,2.91
2019-02-17T06:19:07.495Z,2.87
2019-02-17T06:20:11.702Z,2.96
2019-02-17T06:21:16.196Z,2.90
2019-02-17T06:22:20.396Z,2.94
2019-02-17T06:23:24.499Z,2.89
2019-02-17T06:24:28.675Z,2.87
2019-02-17T06:25:32.890Z,2.91
2019-02-17T06:26:36.906Z,2.87
2019-02-17T06:27:41.533Z,2.89
2019-02-17T06:28:45.390Z,2.88
2019-02-17T06:29:49.628Z,2.86
2019-02-17T06:30:53.482Z,2.88
2019-02-17T06:31:57.415Z,2.83
2019-02-17T06:33:01.565Z,2.80
2019-02-17T06:34:05.577Z,2.77
2019-02-17T06:35:09.634Z,2.78
2019-02-17T06:36:13.562Z,2.77
2019-02-17T06:37:17.808Z,2.73
2019-02-17T06:38:21.936Z,2.71
2019-02-17T06:39:26.621Z,2.75
2019-02-17T06:40:31.003Z,2.75
2019-02-17T06:41:34.872Z,2.77
2019-02-17T06:42:38.813Z,2.75
2019-02-17T06:43:43.079Z,2.80
2019-02-17T06:44:47.594Z,2.90
2019-02-17T06:45:51.903Z,2.91
2019-02-17T06:46:59.316Z,2.95
2019-02-17T06:48:03.265Z,2.96
2019-02-17T06:49:07.363Z,2.90
2019-02-17T06:50:11.582Z,2.94
2019-02-17T06:51:15.800Z,2.95
2019-02-17T06:52:20.094Z,2.93
2019-02-17T06:53:24.039Z,2.97
2019-02-17T06:54:28.202Z,2.98
2019-02-17T06:55:45.602Z,2.94
2019-02-17T06:56:59.322Z,2.95
2019-02-17T06:58:03.341Z,2.95
2019-02-17T06:59:07.551Z,2.93
2019-02-17T07:00:24.976Z,2.92
2019-02-17T07:01:29.083Z,2.89
2019-02-17T07:02:33.322Z,2.93
2019-02-17T07:03:38.076Z,2.88
2019-02-17T07:05:16.527Z,2.88
2019-02-17T07:06:27.110Z,2.89
2019-02-17T07:07:31.380Z,2.89
2019-02-17T07:08:35.322Z,2.91
2019-02-17T07:09:39.250Z,2.95
2019-02-17T07:10:43.257Z,3.00
2019-02-17T07:11:47.325Z,3.06
2019-02-17T07:12:51.237Z,3.03
2019-02-17T07:13:55.535Z,3.05
2019-02-17T07:15:00.103Z,3.08
2019-02-17T07:16:04.542Z,3.08
2019-02-17T07:17:08.717Z,3.09
2019-02-17T07:18:12.664Z,3.06
2019-02-17T07:19:16.759Z,3.05
2019-02-17T07:20:20.687Z,3.10
2019-02-17T07:21:24.870Z,3.06
2019-02-17T07:22:29.117Z,3.11
2019-02-17T07:23:33.306Z,3.09
2019-02-17T07:24:37.403Z,3.08
2019-02-17T07:25:41.650Z,3.11
2019-02-17T07:26:45.828Z,3.14
2019-02-17T07:27:49.834Z,3.08
2019-02-17T07:28:53.854Z,3.11
2019-02-17T07:29:58.026Z,3.11
2019-02-17T07:31:01.954Z,3.06
2019-02-17T07:32:05.839Z,3.11
2019-02-17T07:33:10.203Z,3.12
2019-02-17T07:34:14.238Z,3.10
2019-02-17T07:35:18.411Z,3.09
2019-02-17T07:36:22.594Z,3.10
2019-02-17T07:37:33.493Z,3.09
2019-02-17T07:38:32.373Z,3.09
2019-02-17T07:39:36.673Z,3.16
2019-02-17T07:40:40.848Z,3.22
2019-02-17T07:41:45.014Z,3.17
2019-02-17T07:42:49.292Z,3.21
2019-02-17T07:43:53.640Z,3.22
2019-02-17T07:44:57.747Z,3.26
2019-02-17T07:46:01.789Z,3.26
2019-02-17T07:47:06.366Z,3.31
2019-02-17T07:48:10.371Z,3.27
2019-02-17T07:49:14.892Z,3.24
2019-02-17T07:50:18.900Z,3.23
2019-02-17T07:51:23.203Z,3.19
2019-02-17T07:52:27.135Z,3.18
2019-02-17T07:53:31.138Z,3.15
2019-02-17T07:54:35.386Z,3.18
2019-02-17T07:55:39.608Z,3.18
2019-02-17T07:56:43.470Z,3.02
2019-02-17T07:57:47.715Z,3.19
2019-02-17T07:58:52.332Z,3.19
2019-02-17T07:59:56.635Z,3.18
2019-02-17T08:01:00.642Z,3.17
2019-02-17T08:02:04.648Z,3.18
2019-02-17T08:03:08.852Z,3.27
2019-02-17T08:04:13.354Z,3.29
2019-02-17T08:05:17.554Z,3.29
2019-02-17T08:06:21.827Z,3.29
2019-02-17T08:07:26.189Z,3.32
2019-02-17T08:08:30.596Z,3.28
2019-02-17T08:09:34.543Z,3.29
2019-02-17T08:10:38.543Z,3.34
2019-02-17T08:11:42.910Z,3.39
2019-02-17T08:12:47.199Z,3.46
2019-02-17T08:13:51.213Z,3.54
2019-02-17T08:14:55.856Z,3.50
2019-02-17T08:16:00.038Z,3.58
2019-02-17T08:17:03.960Z,3.56
2019-02-17T08:18:08.290Z,3.61
2019-02-17T08:19:12.218Z,3.57
2019-02-17T08:20:16.554Z,3.46
2019-02-17T08:21:20.404Z,3.37
2019-02-17T08:22:24.647Z,3.54
2019-02-17T08:23:29.586Z,3.56
2019-02-17T08:24:33.777Z,3.52
2019-02-17T08:25:38.299Z,3.47
2019-02-17T08:26:42.434Z,3.47
2019-02-17T08:27:46.361Z,3.52
2019-02-17T08:28:50.913Z,3.56
2019-02-17T08:29:55.250Z,3.56
2019-02-17T08:30:59.194Z,3.62
2019-02-17T08:32:03.526Z,3.61
2019-02-17T08:33:07.546Z,3.66
2019-02-17T08:34:12.446Z,3.67
2019-02-17T08:35:16.792Z,3.72
2019-02-17T08:36:20.723Z,3.70
2019-02-17T08:37:24.974Z,3.74
2019-02-17T08:38:29.142Z,3.74
2019-02-17T08:39:33.557Z,3.78
2019-02-17T08:40:37.759Z,3.83
2019-02-17T08:41:41.689Z,3.89
2019-02-17T08:42:45.939Z,3.95
2019-02-17T08:43:50.044Z,4.03
2019-02-17T08:44:54.155Z,4.03
2019-02-17T08:45:58.345Z,4.10
2019-02-17T08:47:02.353Z,4.08
2019-02-17T08:48:06.617Z,4.03
2019-02-17T08:49:10.474Z,4.03
2019-02-17T08:50:14.496Z,4.09
2019-02-17T08:51:18.438Z,4.16
2019-02-17T08:52:22.776Z,4.21
2019-02-17T08:53:26.799Z,4.23
2019-02-17T08:54:30.658Z,4.26
2019-02-17T08:55:34.542Z,4.32
2019-02-17T08:56:38.594Z,4.35
2019-02-17T08:57:42.823Z,4.36
2019-02-17T08:58:47.017Z,4.36
2019-02-17T08:59:51.131Z,4.38
2019-02-17T09:00:55.343Z,4.41
2019-02-17T09:02:06.033Z,4.45
2019-02-17T09:03:05.337Z,4.47
2019-02-17T09:04:09.192Z,4.52
2019-02-17T09:05:13.119Z,4.57
2019-02-17T09:06:17.139Z,4.64
2019-02-17T09:07:21.332Z,4.63
2019-02-17T09:08:25.759Z,4.72
2019-02-17T09:09:29.685Z,4.76
2019-02-17T09:10:33.617Z,4.82
2019-02-17T09:11:37.630Z,4.84
2019-02-17T09:12:41.810Z,4.85
2019-02-17T09:13:45.926Z,4.89
2019-02-17T09:14:50.220Z,4.87
2019-02-17T09:15:54.135Z,4.92
2019-02-17T09:16:58.165Z,4.85
2019-02-17T09:18:02.108Z,4.90
2019-02-17T09:19:06.423Z,4.94
2019-02-17T09:20:11.462Z,5.04
2019-02-17T09:21:15.471Z,5.06
2019-02-17T09:22:19.779Z,5.05
2019-02-17T09:23:24.032Z,5.13
2019-02-17T09:24:28.866Z,5.18
2019-02-17T09:25:33.194Z,5.14
2019-02-17T09:26:37.223Z,5.14
2019-02-17T09:27:41.814Z,5.21
2019-02-17T09:28:45.823Z,5.30
2019-02-17T09:29:50.194Z,5.34
2019-02-17T09:30:54.727Z,5.45
2019-02-17T09:31:59.521Z,5.44
2019-02-17T09:33:03.499Z,5.52
2019-02-17T09:34:07.509Z,5.54
2019-02-17T09:35:11.883Z,5.64
2019-02-17T09:36:16.161Z,5.70
2019-02-17T09:37:20.713Z,5.67
2019-02-17T09:38:24.938Z,5.71
2019-02-17T09:39:28.884Z,5.78
2019-02-17T09:40:33.322Z,5.88
2019-02-17T09:41:37.714Z,5.88
2019-02-17T09:42:41.982Z,5.87
2019-02-17T09:43:46.085Z,5.92
2019-02-17T09:44:50.106Z,6.03
2019-02-17T09:45:54.847Z,6.02
2019-02-17T09:46:58.998Z,6.04
2019-02-17T09:48:03.478Z,6.13
2019-02-17T09:49:08.376Z,6.24
2019-02-17T09:50:14.485Z,6.29
2019-02-17T09:51:18.921Z,6.35
2019-02-17T09:52:23.279Z,6.37
2019-02-17T09:53:27.976Z,6.33
2019-02-17T09:54:33.226Z,6.34
2019-02-17T09:55:37.253Z,6.42
2019-02-17T09:56:42.135Z,6.56
2019-02-17T09:57:46.278Z,6.64
2019-02-17T09:58:50.643Z,6.67
2019-02-17T09:59:54.610Z,6.65
2019-02-17T10:00:59.359Z,6.73
2019-02-17T10:02:03.771Z,6.73
2019-02-17T10:03:07.803Z,6.82
2019-02-17T10:04:12.147Z,6.90
2019-02-17T10:05:16.387Z,6.87
2019-02-17T10:06:20.458Z,6.88
2019-02-17T10:07:24.395Z,6.90
2019-02-17T10:08:28.423Z,6.95
2019-02-17T10:09:32.814Z,7.01
2019-02-17T10:10:36.750Z,7.08
2019-02-17T10:11:40.974Z,7.16
2019-02-17T10:12:44.988Z,7.27
2019-02-17T10:13:49.319Z,7.35
2019-02-17T10:14:53.343Z,7.38
2019-02-17T10:15:57.723Z,7.39
2019-02-17T10:17:01.672Z,7.45
2019-02-17T10:18:05.644Z,7.45
2019-02-17T10:19:09.726Z,7.56
2019-02-17T10:20:13.767Z,7.56
2019-02-17T10:21:17.774Z,7.63
2019-02-17T10:22:22.035Z,7.57
2019-02-17T10:23:26.343Z,7.59
2019-02-17T10:24:30.344Z,7.65
2019-02-17T10:25:34.863Z,7.67
2019-02-17T10:26:39.071Z,7.75
2019-02-17T10:27:43.012Z,7.93
2019-02-17T10:28:47.287Z,7.87
2019-02-17T10:29:51.692Z,7.88
2019-02-17T10:30:55.951Z,7.93
2019-02-17T10:31:59.965Z,7.93
2019-02-17T10:33:03.976Z,7.95
2019-02-17T10:34:08.001Z,8.06
2019-02-17T10:35:12.317Z,8.10
2019-02-17T10:36:16.670Z,8.14
2019-02-17T10:37:20.933Z,8.20
2019-02-17T10:38:24.877Z,8.25
2019-02-17T10:39:29.241Z,8.30
2019-02-17T10:40:33.436Z,8.36
2019-02-17T10:41:37.979Z,8.44
2019-02-17T10:42:41.947Z,8.48
2019-02-17T10:43:46.339Z,8.54
2019-02-17T10:44:50.573Z,8.59
2019-02-17T10:45:54.977Z,8.65
2019-02-17T10:46:58.975Z,8.65
2019-02-17T10:48:03.590Z,8.75
2019-02-17T10:49:07.674Z,8.76
2019-02-17T10:50:12.108Z,8.82
2019-02-17T10:51:16.111Z,8.86
2019-02-17T10:52:20.465Z,8.89
2019-02-17T10:53:24.662Z,8.93
2019-02-17T10:54:28.850Z,8.98
2019-02-17T10:55:33.023Z,9.05
2019-02-17T10:56:37.028Z,9.13
2019-02-17T10:57:41.201Z,9.19
2019-02-17T10:58:45.212Z,9.18
2019-02-17T10:59:49.162Z,9.26
2019-02-17T11:00:53.485Z,9.30
2019-02-17T11:01:57.735Z,9.34
2019-02-17T11:03:07.682Z,9.34
2019-02-17T11:04:12.058Z,9.38
2019-02-17T11:05:16.376Z,9.43
2019-02-17T11:06:20.378Z,9.51
2019-02-17T11:07:24.626Z,9.54
2019-02-17T11:08:28.550Z,9.61
2019-02-17T11:09:33.131Z,9.68
2019-02-17T11:10:37.644Z,9.69
2019-02-17T11:11:41.820Z,9.85
2019-02-17T11:12:45.830Z,9.81
2019-02-17T11:13:49.838Z,9.77
2019-02-17T11:14:54.362Z,9.84
2019-02-17T11:15:58.978Z,9.88
2019-02-17T11:17:03.051Z,9.98
2019-02-17T11:18:07.304Z,10.03
2019-02-17T11:19:11.363Z,10.05
2019-02-17T11:20:15.724Z,10.10
2019-02-17T11:21:20.007Z,10.10
2019-02-17T11:22:24.027Z,10.15
2019-02-17T11:23:28.216Z,10.25
2019-02-17T11:24:32.154Z,10.23
2019-02-17T11:25:36.175Z,10.26
2019-02-17T11:26:40.117Z,10.25
2019-02-17T11:27:44.730Z,10.31
2019-02-17T11:28:49.040Z,10.39
2019-02-17T11:29:53.406Z,10.42
2019-02-17T11:30:57.439Z,10.48
2019-02-17T11:32:01.447Z,10.42
2019-02-17T11:33:05.475Z,10.47
2019-02-17T11:34:09.690Z,10.53
2019-02-17T11:35:13.893Z,10.63
2019-02-17T11:36:17.945Z,10.72
2019-02-17T11:37:22.273Z,10.78
2019-02-17T11:38:26.314Z,10.80
2019-02-17T11:39:30.367Z,10.82
2019-02-17T11:40:34.707Z,10.86
2019-02-17T11:41:39.098Z,10.80
2019-02-17T11:42:43.414Z,10.89
2019-02-17T11:43:47.508Z,11.00
2019-02-17T11:44:51.582Z,11.11
2019-02-17T11:45:56.621Z,11.09
2019-02-17T11:47:00.937Z,11.16
2019-02-17T11:48:05.360Z,11.12
2019-02-17T11:49:09.686Z,11.21
2019-02-17T11:50:15.661Z,11.25
2019-02-17T11:51:19.458Z,11.37
2019-02-17T11:52:23.519Z,11.39
2019-02-17T11:53:27.565Z,11.40
2019-02-17T11:54:32.332Z,11.51
2019-02-17T11:55:37.163Z,11.51
2019-02-17T11:56:41.879Z,11.58
2019-02-17T11:57:46.243Z,11.62
2019-02-17T11:58:50.597Z,11.57
2019-02-17T11:59:55.010Z,11.66
2019-02-17T12:00:59.085Z,11.75
2019-02-17T12:02:03.826Z,11.71
2019-02-17T12:03:08.561Z,11.76
2019-02-17T12:04:12.626Z,11.82
2019-02-17T12:05:16.955Z,11.82
2019-02-17T12:06:20.952Z,11.89
2019-02-17T12:07:25.280Z,12.03
2019-02-17T12:08:29.347Z,12.02
2019-02-17T12:09:33.797Z,12.02
2019-02-17T12:10:38.201Z,12.08
2019-02-17T12:11:42.645Z,12.07
2019-02-17T12:12:47.330Z,12.12
2019-02-17T12:13:51.724Z,12.20
2019-02-17T12:14:56.138Z,12.14
2019-02-17T12:16:00.184Z,12.27
2019-02-17T12:17:04.656Z,12.27
2019-02-17T12:18:09.078Z,12.34
2019-02-17T12:19:13.111Z,12.37
2019-02-17T12:20:41.154Z,12.40
2019-02-17T12:21:50.175Z,12.42
2019-02-17T12:22:59.644Z,12.51
2019-02-17T12:24:31.965Z,12.47
2019-02-17T12:25:49.658Z,12.61
2019-02-17T12:26:59.437Z,12.52
2019-02-17T12:28:07.792Z,12.58
2019-02-17T12:29:19.452Z,12.67
2019-02-17T12:30:24.975Z,12.72
2019-02-17T12:31:33.490Z,12.87
2019-02-17T12:32:37.551Z,12.82
2019-02-17T12:33:41.627Z,12.82
2019-02-17T12:34:45.697Z,12.80
2019-02-17T12:35:49.742Z,12.82
2019-02-17T12:36:53.808Z,12.81
2019-02-17T12:37:58.112Z,12.84
2019-02-17T12:39:02.174Z,12.84
2019-02-17T12:40:09.290Z,12.94
2019-02-17T12:41:13.313Z,13.02
2019-02-17T12:42:17.354Z,13.05
2019-02-17T12:43:21.287Z,13.11
2019-02-17T12:44:25.313Z,13.08
2019-02-17T12:45:29.632Z,13.06
2019-02-17T12:46:33.636Z,13.08
2019-02-17T12:47:37.835Z,13.09
2019-02-17T12:48:41.956Z,13.05
2019-02-17T12:49:46.155Z,13.08
2019-02-17T12:50:50.089Z,13.14
2019-02-17T12:51:54.673Z,13.20
2019-02-17T12:52:58.699Z,13.28
2019-02-17T12:54:02.707Z,13.31
2019-02-17T12:55:07.185Z,13.38
2019-02-17T12:56:11.488Z,13.33
2019-02-17T12:57:15.423Z,13.37
2019-02-17T12:58:29.395Z,13.46
2019-02-17T12:59:25.733Z,13.42
2019-02-17T13:00:30.042Z,13.45
2019-02-17T13:01:34.224Z,13.48
2019-02-17T13:02:38.408Z,13.50
2019-02-17T13:03:42.968Z,13.63
2019-02-17T13:04:47.172Z,13.65
2019-02-17T13:05:51.382Z,13.64
2019-02-17T13:06:55.584Z,13.79
2019-02-17T13:07:59.892Z,13.77
2019-02-17T13:09:05.572Z,13.72
2019-02-17T13:10:10.564Z,13.77
2019-02-17T13:11:14.764Z,13.91
2019-02-17T13:12:19.173Z,13.88
2019-02-17T13:13:23.481Z,13.87
2019-02-17T13:14:27.842Z,13.86
2019-02-17T13:15:32.315Z,13.92
2019-02-17T13:16:36.259Z,13.95
2019-02-17T13:17:40.269Z,13.93
2019-02-17T13:18:44.148Z,14.03
2019-02-17T13:19:48.092Z,14.03
2019-02-17T13:20:52.104Z,14.06
2019-02-17T13:21:56.125Z,14.01
2019-02-17T13:23:00.412Z,14.00
2019-02-17T13:24:04.682Z,14.03
2019-02-17T13:25:09.976Z,14.12
2019-02-17T13:26:14.263Z,14.19
2019-02-17T13:27:18.275Z,14.20
2019-02-17T13:28:22.565Z,14.23
2019-02-17T13:29:26.512Z,14.26
2019-02-17T13:30:30.790Z,14.37
2019-02-17T13:31:34.730Z,14.31
2019-02-17T13:32:39.010Z,14.32
2019-02-17T13:33:43.027Z,14.39
2019-02-17T13:34:48.464Z,14.38
2019-02-17T13:35:52.381Z,14.37
2019-02-17T13:36:56.427Z,14.44
2019-02-17T13:38:00.696Z,14.44
2019-02-17T13:39:06.714Z,14.42
2019-02-17T13:40:11.754Z,14.49
2019-02-17T13:41:16.105Z,14.60
2019-02-17T13:42:20.418Z,14.68
2019-02-17T13:43:24.635Z,14.72
2019-02-17T13:44:28.825Z,14.71
2019-02-17T13:45:32.770Z,14.64
2019-02-17T13:46:37.201Z,14.57
2019-02-17T13:47:41.476Z,14.54
2019-02-17T13:48:45.528Z,14.68
2019-02-17T13:49:49.788Z,14.70
2019-02-17T13:50:54.063Z,14.74
2019-02-17T13:51:58.328Z,14.78
2019-02-17T13:53:11.429Z,14.75
2019-02-17T13:54:08.298Z,14.77
2019-02-17T13:55:12.614Z,14.73
2019-02-17T13:56:16.785Z,14.67
2019-02-17T13:57:20.716Z,14.67
2019-02-17T13:58:25.176Z,14.73
2019-02-17T13:59:29.128Z,14.78
2019-02-17T14:00:33.064Z,14.81
2019-02-17T14:01:37.081Z,14.84
2019-02-17T14:02:41.089Z,14.82
2019-02-17T14:03:48.879Z,14.96
2019-02-17T14:04:51.192Z,14.85
2019-02-17T14:05:55.127Z,14.83
2019-02-17T14:06:59.235Z,14.81
2019-02-17T14:08:03.175Z,14.94
2019-02-17T14:09:07.883Z,14.93
2019-02-17T14:10:12.190Z,14.89
2019-02-17T14:11:16.248Z,14.91
2019-02-17T14:12:20.400Z,14.89
2019-02-17T14:13:24.899Z,14.88